sensor_id;sensor_type;location;lat;lon;timestamp;P1;durP1;ratioP1;P2;durP2;ratioP2
67715;SDS011;54508;43.238;25.306;2023-07-24T00:02:08;3.30;;;3.00;;
67715;SDS011;54508;43.238;25.306;2023-07-24T00:04:33;3.50;;;3.20;;
67715;SDS011;54508;43.238;25.306;2023-07-24T00:06:59;3.55;;;3.25;;
67715;SDS011;54508;43.238;25.306;2023-07-24T00:09:25;3.85;;;2.95;;
67715;SDS011;54508;43.238;25.306;2023-07-24T00:11:50;4.00;;;3.30;;
67715;SDS011;54508;43.238;25.306;2023-07-24T00:14:16;3.63;;;3.20;;
67715;SDS011;54508;43.238;25.306;2023-07-24T00:16:41;3.20;;;2.77;;
67715;SDS011;54508;43.238;25.306;2023-07-24T00:19:07;3.55;;;2.63;;
67715;SDS011;54508;43.238;25.306;2023-07-24T00:21:32;3.40;;;3.00;;
67715;SDS011;54508;43.238;25.306;2023-07-24T00:23:58;3.50;;;3.17;;
67715;SDS011;54508;43.238;25.306;2023-07-24T00:26:23;3.90;;;3.00;;
67715;SDS011;54508;43.238;25.306;2023-07-24T00:28:49;3.78;;;3.00;;
67715;SDS011;54508;43.238;25.306;2023-07-24T00:31:14;3.10;;;2.80;;
67715;SDS011;54508;43.238;25.306;2023-07-24T00:33:40;3.47;;;2.90;;
67715;SDS011;54508;43.238;25.306;2023-07-24T00:36:05;3.10;;;2.80;;
67715;SDS011;54508;43.238;25.306;2023-07-24T00:38:31;3.20;;;2.90;;
67715;SDS011;54508;43.238;25.306;2023-07-24T00:40:56;3.42;;;3.08;;
67715;SDS011;54508;43.238;25.306;2023-07-24T00:43:21;4.40;;;2.90;;
67715;SDS011;54508;43.238;25.306;2023-07-24T00:45:47;3.30;;;3.00;;
67715;SDS011;54508;43.238;25.306;2023-07-24T00:48:13;3.38;;;3.08;;
67715;SDS011;54508;43.238;25.306;2023-07-24T00:50:39;3.70;;;3.07;;
67715;SDS011;54508;43.238;25.306;2023-07-24T00:53:05;4.50;;;2.92;;
67715;SDS011;54508;43.238;25.306;2023-07-24T00:55:30;4.67;;;2.90;;
67715;SDS011;54508;43.238;25.306;2023-07-24T00:57:57;4.00;;;3.10;;
67715;SDS011;54508;43.238;25.306;2023-07-24T01:00:23;4.72;;;2.90;;
67715;SDS011;54508;43.238;25.306;2023-07-24T01:02:48;3.33;;;2.90;;
67715;SDS011;54508;43.238;25.306;2023-07-24T01:05:14;3.83;;;3.43;;
67715;SDS011;54508;43.238;25.306;2023-07-24T01:07:40;3.00;;;2.70;;
67715;SDS011;54508;43.238;25.306;2023-07-24T01:10:05;3.70;;;2.70;;
67715;SDS011;54508;43.238;25.306;2023-07-24T01:15:28;3.30;;;3.00;;
67715;SDS011;54508;43.238;25.306;2023-07-24T01:17:57;3.20;;;2.92;;
67715;SDS011;54508;43.238;25.306;2023-07-24T01:20:53;3.88;;;3.22;;
67715;SDS011;54508;43.238;25.306;2023-07-24T01:26:15;3.17;;;2.88;;
67715;SDS011;54508;43.238;25.306;2023-07-24T01:28:44;3.15;;;2.75;;
67715;SDS011;54508;43.238;25.306;2023-07-24T01:31:09;3.20;;;2.85;;
67715;SDS011;54508;43.238;25.306;2023-07-24T01:33:37;4.85;;;3.10;;
67715;SDS011;54508;43.238;25.306;2023-07-24T01:36:03;3.97;;;3.00;;
67715;SDS011;54508;43.238;25.306;2023-07-24T01:38:31;3.88;;;2.88;;
67715;SDS011;54508;43.238;25.306;2023-07-24T01:40:57;3.60;;;2.97;;
67715;SDS011;54508;43.238;25.306;2023-07-24T01:43:24;3.40;;;2.80;;
67715;SDS011;54508;43.238;25.306;2023-07-24T01:45:52;4.47;;;3.45;;
67715;SDS011;54508;43.238;25.306;2023-07-24T01:48:17;5.00;;;3.33;;
67715;SDS011;54508;43.238;25.306;2023-07-24T01:50:43;3.90;;;3.00;;
67715;SDS011;54508;43.238;25.306;2023-07-24T01:53:08;3.90;;;3.10;;
67715;SDS011;54508;43.238;25.306;2023-07-24T01:55:34;3.47;;;2.88;;
67715;SDS011;54508;43.238;25.306;2023-07-24T01:58:00;3.43;;;2.97;;
67715;SDS011;54508;43.238;25.306;2023-07-24T02:00:25;3.33;;;2.83;;
67715;SDS011;54508;43.238;25.306;2023-07-24T02:02:51;3.03;;;2.73;;
67715;SDS011;54508;43.238;25.306;2023-07-24T02:05:16;3.47;;;2.87;;
67715;SDS011;54508;43.238;25.306;2023-07-24T02:07:41;4.20;;;2.97;;
67715;SDS011;54508;43.238;25.306;2023-07-24T02:10:07;3.60;;;3.03;;
67715;SDS011;54508;43.238;25.306;2023-07-24T02:12:33;4.05;;;3.03;;
67715;SDS011;54508;43.238;25.306;2023-07-24T02:14:58;4.20;;;3.23;;
67715;SDS011;54508;43.238;25.306;2023-07-24T02:17:24;4.45;;;3.58;;
67715;SDS011;54508;43.238;25.306;2023-07-24T02:19:50;3.83;;;3.53;;
67715;SDS011;54508;43.238;25.306;2023-07-24T02:22:36;3.45;;;3.13;;
67715;SDS011;54508;43.238;25.306;2023-07-24T02:25:03;3.90;;;2.73;;
67715;SDS011;54508;43.238;25.306;2023-07-24T02:27:30;4.00;;;3.20;;
67715;SDS011;54508;43.238;25.306;2023-07-24T02:29:56;4.70;;;2.85;;
67715;SDS011;54508;43.238;25.306;2023-07-24T02:32:22;4.35;;;2.90;;
67715;SDS011;54508;43.238;25.306;2023-07-24T02:34:51;3.40;;;2.80;;
67715;SDS011;54508;43.238;25.306;2023-07-24T02:37:26;3.42;;;3.13;;
67715;SDS011;54508;43.238;25.306;2023-07-24T02:39:52;3.17;;;2.57;;
67715;SDS011;54508;43.238;25.306;2023-07-24T02:42:18;3.30;;;3.00;;
67715;SDS011;54508;43.238;25.306;2023-07-24T02:44:43;3.93;;;3.40;;
67715;SDS011;54508;43.238;25.306;2023-07-24T02:47:09;4.90;;;3.30;;
67715;SDS011;54508;43.238;25.306;2023-07-24T02:49:34;3.88;;;3.10;;
67715;SDS011;54508;43.238;25.306;2023-07-24T02:52:00;4.75;;;3.00;;
67715;SDS011;54508;43.238;25.306;2023-07-24T02:54:25;3.10;;;2.80;;
67715;SDS011;54508;43.238;25.306;2023-07-24T02:56:51;3.05;;;2.75;;
67715;SDS011;54508;43.238;25.306;2023-07-24T02:59:17;3.57;;;2.80;;
67715;SDS011;54508;43.238;25.306;2023-07-24T03:01:42;3.38;;;3.08;;
67715;SDS011;54508;43.238;25.306;2023-07-24T03:04:08;3.35;;;2.95;;
67715;SDS011;54508;43.238;25.306;2023-07-24T03:06:34;3.97;;;3.00;;
67715;SDS011;54508;43.238;25.306;2023-07-24T03:09:00;3.28;;;2.80;;
67715;SDS011;54508;43.238;25.306;2023-07-24T03:11:26;3.13;;;2.83;;
67715;SDS011;54508;43.238;25.306;2023-07-24T03:13:51;3.70;;;3.13;;
67715;SDS011;54508;43.238;25.306;2023-07-24T03:16:17;5.07;;;3.58;;
67715;SDS011;54508;43.238;25.306;2023-07-24T03:18:44;3.33;;;2.97;;
67715;SDS011;54508;43.238;25.306;2023-07-24T03:21:10;4.22;;;2.97;;
67715;SDS011;54508;43.238;25.306;2023-07-24T03:23:35;3.87;;;3.20;;
67715;SDS011;54508;43.238;25.306;2023-07-24T03:26:00;4.00;;;3.60;;
67715;SDS011;54508;43.238;25.306;2023-07-24T03:28:26;3.58;;;3.25;;
67715;SDS011;54508;43.238;25.306;2023-07-24T03:30:52;3.80;;;3.37;;
67715;SDS011;54508;43.238;25.306;2023-07-24T03:33:17;3.60;;;3.07;;
67715;SDS011;54508;43.238;25.306;2023-07-24T03:35:43;4.07;;;3.22;;
67715;SDS011;54508;43.238;25.306;2023-07-24T03:38:08;3.30;;;3.00;;
67715;SDS011;54508;43.238;25.306;2023-07-24T03:40:33;4.13;;;3.33;;
67715;SDS011;54508;43.238;25.306;2023-07-24T03:42:59;4.43;;;3.50;;
67715;SDS011;54508;43.238;25.306;2023-07-24T03:45:24;3.50;;;3.20;;
67715;SDS011;54508;43.238;25.306;2023-07-24T03:47:50;4.45;;;3.38;;
67715;SDS011;54508;43.238;25.306;2023-07-24T03:50:16;5.27;;;3.40;;
67715;SDS011;54508;43.238;25.306;2023-07-24T03:52:41;4.68;;;3.28;;
67715;SDS011;54508;43.238;25.306;2023-07-24T03:55:07;4.47;;;3.63;;
67715;SDS011;54508;43.238;25.306;2023-07-24T03:57:33;3.70;;;3.10;;
67715;SDS011;54508;43.238;25.306;2023-07-24T03:59:58;4.40;;;3.20;;
67715;SDS011;54508;43.238;25.306;2023-07-24T04:02:24;5.23;;;3.27;;
67715;SDS011;54508;43.238;25.306;2023-07-24T04:04:49;4.47;;;4.07;;
67715;SDS011;54508;43.238;25.306;2023-07-24T04:07:14;4.68;;;3.35;;
67715;SDS011;54508;43.238;25.306;2023-07-24T04:09:43;4.13;;;3.65;;
67715;SDS011;54508;43.238;25.306;2023-07-24T04:12:11;4.20;;;3.80;;
67715;SDS011;54508;43.238;25.306;2023-07-24T04:14:37;4.80;;;3.88;;
67715;SDS011;54508;43.238;25.306;2023-07-24T04:17:02;4.50;;;3.50;;
67715;SDS011;54508;43.238;25.306;2023-07-24T04:19:34;5.73;;;3.60;;
67715;SDS011;54508;43.238;25.306;2023-07-24T04:22:11;4.55;;;3.80;;
67715;SDS011;54508;43.238;25.306;2023-07-24T04:24:36;4.00;;;3.60;;
67715;SDS011;54508;43.238;25.306;2023-07-24T04:27:02;7.18;;;4.00;;
67715;SDS011;54508;43.238;25.306;2023-07-24T04:29:28;4.03;;;3.60;;
67715;SDS011;54508;43.238;25.306;2023-07-24T04:31:53;4.63;;;3.53;;
67715;SDS011;54508;43.238;25.306;2023-07-24T04:34:18;4.25;;;3.60;;
67715;SDS011;54508;43.238;25.306;2023-07-24T04:36:44;4.40;;;3.53;;
67715;SDS011;54508;43.238;25.306;2023-07-24T04:39:09;5.50;;;3.80;;
67715;SDS011;54508;43.238;25.306;2023-07-24T04:41:35;4.20;;;3.73;;
67715;SDS011;54508;43.238;25.306;2023-07-24T04:44:00;4.30;;;3.80;;
67715;SDS011;54508;43.238;25.306;2023-07-24T04:46:26;4.47;;;3.77;;
67715;SDS011;54508;43.238;25.306;2023-07-24T04:48:51;5.40;;;3.93;;
67715;SDS011;54508;43.238;25.306;2023-07-24T04:51:16;4.40;;;4.00;;
67715;SDS011;54508;43.238;25.306;2023-07-24T04:53:43;4.00;;;3.53;;
67715;SDS011;54508;43.238;25.306;2023-07-24T04:56:09;4.25;;;3.70;;
67715;SDS011;54508;43.238;25.306;2023-07-24T04:58:35;4.82;;;3.95;;
67715;SDS011;54508;43.238;25.306;2023-07-24T05:01:04;4.10;;;3.60;;
67715;SDS011;54508;43.238;25.306;2023-07-24T05:03:30;4.30;;;3.70;;
67715;SDS011;54508;43.238;25.306;2023-07-24T05:05:57;4.72;;;4.20;;
67715;SDS011;54508;43.238;25.306;2023-07-24T05:08:22;4.70;;;3.80;;
67715;SDS011;54508;43.238;25.306;2023-07-24T05:10:53;5.00;;;3.75;;
67715;SDS011;54508;43.238;25.306;2023-07-24T05:13:22;6.07;;;4.68;;
67715;SDS011;54508;43.238;25.306;2023-07-24T05:15:47;10.10;;;6.03;;
67715;SDS011;54508;43.238;25.306;2023-07-24T05:18:13;10.98;;;6.20;;
67715;SDS011;54508;43.238;25.306;2023-07-24T05:20:42;14.37;;;6.90;;
67715;SDS011;54508;43.238;25.306;2023-07-24T05:23:11;8.07;;;6.05;;
67715;SDS011;54508;43.238;25.306;2023-07-24T05:25:37;9.57;;;6.27;;
67715;SDS011;54508;43.238;25.306;2023-07-24T05:28:03;13.30;;;6.90;;
67715;SDS011;54508;43.238;25.306;2023-07-24T05:30:30;15.77;;;6.22;;
67715;SDS011;54508;43.238;25.306;2023-07-24T05:33:14;9.35;;;6.55;;
67715;SDS011;54508;43.238;25.306;2023-07-24T05:35:39;8.93;;;5.63;;
67715;SDS011;54508;43.238;25.306;2023-07-24T05:38:05;8.87;;;6.67;;
67715;SDS011;54508;43.238;25.306;2023-07-24T05:40:30;18.27;;;7.13;;
67715;SDS011;54508;43.238;25.306;2023-07-24T05:42:55;11.13;;;6.50;;
67715;SDS011;54508;43.238;25.306;2023-07-24T05:45:21;12.68;;;6.40;;
67715;SDS011;54508;43.238;25.306;2023-07-24T05:47:46;10.40;;;6.97;;
67715;SDS011;54508;43.238;25.306;2023-07-24T05:50:12;8.10;;;6.60;;
67715;SDS011;54508;43.238;25.306;2023-07-24T05:52:38;12.20;;;6.30;;
67715;SDS011;54508;43.238;25.306;2023-07-24T05:55:04;10.47;;;6.60;;
67715;SDS011;54508;43.238;25.306;2023-07-24T05:57:30;12.95;;;7.50;;
67715;SDS011;54508;43.238;25.306;2023-07-24T05:59:55;20.57;;;7.40;;
67715;SDS011;54508;43.238;25.306;2023-07-24T06:02:21;13.07;;;7.13;;
67715;SDS011;54508;43.238;25.306;2023-07-24T06:04:52;14.68;;;7.18;;
67715;SDS011;54508;43.238;25.306;2023-07-24T06:07:18;12.80;;;6.70;;
67715;SDS011;54508;43.238;25.306;2023-07-24T06:09:43;13.20;;;7.72;;
67715;SDS011;54508;43.238;25.306;2023-07-24T06:12:09;26.73;;;17.33;;
67715;SDS011;54508;43.238;25.306;2023-07-24T06:14:34;32.17;;;17.80;;
67715;SDS011;54508;43.238;25.306;2023-07-24T06:16:59;28.33;;;16.83;;
67715;SDS011;54508;43.238;25.306;2023-07-24T06:19:25;24.23;;;16.70;;
67715;SDS011;54508;43.238;25.306;2023-07-24T06:21:50;30.52;;;16.25;;
67715;SDS011;54508;43.238;25.306;2023-07-24T06:24:16;28.23;;;15.30;;
67715;SDS011;54508;43.238;25.306;2023-07-24T06:26:41;32.63;;;15.10;;
67715;SDS011;54508;43.238;25.306;2023-07-24T06:29:07;18.50;;;14.53;;
67715;SDS011;54508;43.238;25.306;2023-07-24T06:31:32;20.13;;;13.60;;
67715;SDS011;54508;43.238;25.306;2023-07-24T06:33:57;18.20;;;12.70;;
67715;SDS011;54508;43.238;25.306;2023-07-24T06:36:23;22.40;;;13.00;;
67715;SDS011;54508;43.238;25.306;2023-07-24T06:38:48;29.77;;;12.47;;
67715;SDS011;54508;43.238;25.306;2023-07-24T06:41:14;17.87;;;12.50;;
67715;SDS011;54508;43.238;25.306;2023-07-24T06:43:42;31.17;;;12.50;;
67715;SDS011;54508;43.238;25.306;2023-07-24T06:46:08;15.37;;;11.87;;
67715;SDS011;54508;43.238;25.306;2023-07-24T06:48:33;17.63;;;12.43;;
67715;SDS011;54508;43.238;25.306;2023-07-24T06:51:02;19.57;;;11.73;;
67715;SDS011;54508;43.238;25.306;2023-07-24T06:53:32;18.00;;;12.30;;
67715;SDS011;54508;43.238;25.306;2023-07-24T06:56:00;20.23;;;12.47;;
67715;SDS011;54508;43.238;25.306;2023-07-24T06:58:25;19.58;;;12.15;;
67715;SDS011;54508;43.238;25.306;2023-07-24T07:00:51;20.37;;;12.80;;
67715;SDS011;54508;43.238;25.306;2023-07-24T07:03:16;14.40;;;11.60;;
67715;SDS011;54508;43.238;25.306;2023-07-24T07:05:42;14.83;;;12.40;;
67715;SDS011;54508;43.238;25.306;2023-07-24T07:08:07;17.73;;;12.32;;
67715;SDS011;54508;43.238;25.306;2023-07-24T07:10:33;14.00;;;11.37;;
67715;SDS011;54508;43.238;25.306;2023-07-24T07:12:58;17.67;;;12.07;;
67715;SDS011;54508;43.238;25.306;2023-07-24T07:15:26;19.40;;;11.90;;
67715;SDS011;54508;43.238;25.306;2023-07-24T07:17:51;19.03;;;11.63;;
67715;SDS011;54508;43.238;25.306;2023-07-24T07:20:17;13.90;;;11.50;;
67715;SDS011;54508;43.238;25.306;2023-07-24T07:22:42;19.15;;;13.00;;
67715;SDS011;54508;43.238;25.306;2023-07-24T07:25:08;17.50;;;12.82;;
67715;SDS011;54508;43.238;25.306;2023-07-24T07:27:33;19.60;;;13.00;;
67715;SDS011;54508;43.238;25.306;2023-07-24T07:29:59;17.63;;;12.17;;
67715;SDS011;54508;43.238;25.306;2023-07-24T07:32:24;20.75;;;12.10;;
67715;SDS011;54508;43.238;25.306;2023-07-24T07:34:50;14.23;;;10.45;;
67715;SDS011;54508;43.238;25.306;2023-07-24T07:37:15;15.43;;;10.10;;
67715;SDS011;54508;43.238;25.306;2023-07-24T07:39:41;11.27;;;7.90;;
67715;SDS011;54508;43.238;25.306;2023-07-24T07:42:06;14.27;;;8.77;;
67715;SDS011;54508;43.238;25.306;2023-07-24T07:44:38;11.88;;;8.50;;
67715;SDS011;54508;43.238;25.306;2023-07-24T07:47:03;10.30;;;8.83;;
67715;SDS011;54508;43.238;25.306;2023-07-24T07:49:29;12.40;;;8.63;;
67715;SDS011;54508;43.238;25.306;2023-07-24T07:51:54;11.50;;;8.80;;
67715;SDS011;54508;43.238;25.306;2023-07-24T07:54:20;10.30;;;7.70;;
67715;SDS011;54508;43.238;25.306;2023-07-24T07:56:45;12.97;;;7.73;;
67715;SDS011;54508;43.238;25.306;2023-07-24T07:59:11;11.13;;;7.72;;
67715;SDS011;54508;43.238;25.306;2023-07-24T08:01:36;10.00;;;7.35;;
67715;SDS011;54508;43.238;25.306;2023-07-24T08:04:04;8.82;;;7.40;;
67715;SDS011;54508;43.238;25.306;2023-07-24T08:06:30;9.55;;;7.18;;
67715;SDS011;54508;43.238;25.306;2023-07-24T08:08:55;10.87;;;7.20;;
67715;SDS011;54508;43.238;25.306;2023-07-24T08:11:21;10.73;;;6.35;;
67715;SDS011;54508;43.238;25.306;2023-07-24T08:13:46;15.70;;;6.43;;
67715;SDS011;54508;43.238;25.306;2023-07-24T08:16:12;6.83;;;6.13;;
67715;SDS011;54508;43.238;25.306;2023-07-24T08:18:43;8.27;;;5.65;;
67715;SDS011;54508;43.238;25.306;2023-07-24T08:21:09;11.20;;;5.67;;
67715;SDS011;54508;43.238;25.306;2023-07-24T08:23:34;6.25;;;5.22;;
67715;SDS011;54508;43.238;25.306;2023-07-24T08:25:59;6.60;;;5.93;;
67715;SDS011;54508;43.238;25.306;2023-07-24T08:28:25;9.87;;;5.50;;
67715;SDS011;54508;43.238;25.306;2023-07-24T08:30:57;7.83;;;5.20;;
67715;SDS011;54508;43.238;25.306;2023-07-24T08:33:23;5.72;;;5.13;;
67715;SDS011;54508;43.238;25.306;2023-07-24T08:35:57;6.53;;;4.70;;
67715;SDS011;54508;43.238;25.306;2023-07-24T08:38:36;7.38;;;4.78;;
67715;SDS011;54508;43.238;25.306;2023-07-24T08:41:05;6.05;;;4.55;;
67715;SDS011;54508;43.238;25.306;2023-07-24T08:43:33;10.57;;;5.50;;
67715;SDS011;54508;43.238;25.306;2023-07-24T08:45:59;6.55;;;4.97;;
67715;SDS011;54508;43.238;25.306;2023-07-24T08:48:26;5.25;;;4.75;;
67715;SDS011;54508;43.238;25.306;2023-07-24T08:50:55;10.32;;;4.80;;
67715;SDS011;54508;43.238;25.306;2023-07-24T08:53:23;6.38;;;5.13;;
67715;SDS011;54508;43.238;25.306;2023-07-24T08:55:49;6.22;;;4.60;;
67715;SDS011;54508;43.238;25.306;2023-07-24T08:58:14;6.72;;;4.47;;
67715;SDS011;54508;43.238;25.306;2023-07-24T09:00:40;7.47;;;4.10;;
67715;SDS011;54508;43.238;25.306;2023-07-24T09:03:05;5.53;;;4.40;;
67715;SDS011;54508;43.238;25.306;2023-07-24T09:05:31;4.85;;;4.10;;
67715;SDS011;54508;43.238;25.306;2023-07-24T09:07:56;11.53;;;4.00;;
67715;SDS011;54508;43.238;25.306;2023-07-24T09:10:25;5.50;;;4.00;;
67715;SDS011;54508;43.238;25.306;2023-07-24T09:12:51;9.43;;;3.95;;
67715;SDS011;54508;43.238;25.306;2023-07-24T09:15:16;6.90;;;3.70;;
67715;SDS011;54508;43.238;25.306;2023-07-24T09:17:51;4.35;;;3.67;;
67715;SDS011;54508;43.238;25.306;2023-07-24T09:20:18;4.85;;;3.72;;
67715;SDS011;54508;43.238;25.306;2023-07-24T09:23:02;4.97;;;3.90;;
67715;SDS011;54508;43.238;25.306;2023-07-24T09:25:31;6.45;;;4.55;;
67715;SDS011;54508;43.238;25.306;2023-07-24T09:28:01;6.20;;;4.45;;
67715;SDS011;54508;43.238;25.306;2023-07-24T09:30:26;13.85;;;4.15;;
67715;SDS011;54508;43.238;25.306;2023-07-24T09:32:55;5.32;;;4.03;;
67715;SDS011;54508;43.238;25.306;2023-07-24T09:35:21;5.55;;;3.58;;
67715;SDS011;54508;43.238;25.306;2023-07-24T09:38:01;4.67;;;3.73;;
67715;SDS011;54508;43.238;25.306;2023-07-24T09:40:28;5.53;;;3.50;;
67715;SDS011;54508;43.238;25.306;2023-07-24T09:42:53;4.82;;;3.45;;
67715;SDS011;54508;43.238;25.306;2023-07-24T09:45:21;5.23;;;3.57;;
67715;SDS011;54508;43.238;25.306;2023-07-24T09:47:47;4.43;;;3.42;;
67715;SDS011;54508;43.238;25.306;2023-07-24T09:50:13;11.03;;;3.40;;
67715;SDS011;54508;43.238;25.306;2023-07-24T09:52:39;3.72;;;3.28;;
67715;SDS011;54508;43.238;25.306;2023-07-24T09:55:21;4.40;;;3.13;;
67715;SDS011;54508;43.238;25.306;2023-07-24T09:57:49;9.70;;;8.20;;
67715;SDS011;54508;43.238;25.306;2023-07-24T10:00:16;12.13;;;8.13;;
67715;SDS011;54508;43.238;25.306;2023-07-24T10:02:42;9.63;;;7.20;;
67715;SDS011;54508;43.238;25.306;2023-07-24T10:05:08;8.67;;;7.30;;
67715;SDS011;54508;43.238;25.306;2023-07-24T10:07:36;8.65;;;6.80;;
67715;SDS011;54508;43.238;25.306;2023-07-24T10:10:02;7.47;;;6.35;;
67715;SDS011;54508;43.238;25.306;2023-07-24T10:12:27;7.30;;;6.15;;
67715;SDS011;54508;43.238;25.306;2023-07-24T10:14:55;8.35;;;6.05;;
67715;SDS011;54508;43.238;25.306;2023-07-24T10:17:33;8.10;;;7.03;;
67715;SDS011;54508;43.238;25.306;2023-07-24T10:20:04;10.35;;;9.00;;
67715;SDS011;54508;43.238;25.306;2023-07-24T10:22:31;11.15;;;8.93;;
67715;SDS011;54508;43.238;25.306;2023-07-24T10:24:56;10.07;;;8.23;;
67715;SDS011;54508;43.238;25.306;2023-07-24T10:27:25;9.40;;;7.83;;
67715;SDS011;54508;43.238;25.306;2023-07-24T10:30:00;9.40;;;7.82;;
67715;SDS011;54508;43.238;25.306;2023-07-24T10:32:27;9.13;;;8.20;;
67715;SDS011;54508;43.238;25.306;2023-07-24T10:35:26;11.37;;;8.27;;
67715;SDS011;54508;43.238;25.306;2023-07-24T10:37:47;8.13;;;7.32;;
67715;SDS011;54508;43.238;25.306;2023-07-24T10:40:19;9.73;;;7.47;;
67715;SDS011;54508;43.238;25.306;2023-07-24T10:42:46;8.70;;;7.47;;
67715;SDS011;54508;43.238;25.306;2023-07-24T10:45:11;8.27;;;6.85;;
67715;SDS011;54508;43.238;25.306;2023-07-24T10:47:37;10.63;;;6.30;;
67715;SDS011;54508;43.238;25.306;2023-07-24T10:50:03;8.77;;;5.43;;
67715;SDS011;54508;43.238;25.306;2023-07-24T10:52:31;6.82;;;6.05;;
67715;SDS011;54508;43.238;25.306;2023-07-24T10:55:01;7.57;;;5.70;;
67715;SDS011;54508;43.238;25.306;2023-07-24T10:57:27;6.82;;;5.40;;
67715;SDS011;54508;43.238;25.306;2023-07-24T10:59:54;8.23;;;5.23;;
67715;SDS011;54508;43.238;25.306;2023-07-24T11:02:19;7.07;;;5.10;;
67715;SDS011;54508;43.238;25.306;2023-07-24T11:04:45;7.57;;;4.80;;
67715;SDS011;54508;43.238;25.306;2023-07-24T11:07:11;8.63;;;4.72;;
67715;SDS011;54508;43.238;25.306;2023-07-24T11:09:36;6.30;;;4.37;;
67715;SDS011;54508;43.238;25.306;2023-07-24T11:12:13;5.30;;;4.05;;
67715;SDS011;54508;43.238;25.306;2023-07-24T11:14:46;7.03;;;4.10;;
67715;SDS011;54508;43.238;25.306;2023-07-24T11:17:15;7.67;;;6.37;;
67715;SDS011;54508;43.238;25.306;2023-07-24T11:19:41;9.52;;;7.95;;
67715;SDS011;54508;43.238;25.306;2023-07-24T11:22:06;16.57;;;14.77;;
67715;SDS011;54508;43.238;25.306;2023-07-24T11:24:32;20.92;;;16.33;;
67715;SDS011;54508;43.238;25.306;2023-07-24T11:26:58;19.70;;;17.07;;
67715;SDS011;54508;43.238;25.306;2023-07-24T11:29:23;18.08;;;15.75;;
67715;SDS011;54508;43.238;25.306;2023-07-24T11:31:55;19.70;;;15.57;;
67715;SDS011;54508;43.238;25.306;2023-07-24T11:34:22;16.48;;;13.50;;
67715;SDS011;54508;43.238;25.306;2023-07-24T11:36:48;13.23;;;11.20;;
67715;SDS011;54508;43.238;25.306;2023-07-24T11:39:21;13.95;;;11.40;;
67715;SDS011;54508;43.238;25.306;2023-07-24T11:41:47;11.65;;;10.45;;
67715;SDS011;54508;43.238;25.306;2023-07-24T11:44:12;11.87;;;10.23;;
67715;SDS011;54508;43.238;25.306;2023-07-24T11:46:41;11.52;;;9.05;;
67715;SDS011;54508;43.238;25.306;2023-07-24T11:49:08;11.48;;;8.93;;
67715;SDS011;54508;43.238;25.306;2023-07-24T11:51:36;12.27;;;10.80;;
67715;SDS011;54508;43.238;25.306;2023-07-24T11:54:08;13.07;;;9.68;;
67715;SDS011;54508;43.238;25.306;2023-07-24T11:56:36;11.43;;;9.77;;
67715;SDS011;54508;43.238;25.306;2023-07-24T11:59:11;13.87;;;9.03;;
67715;SDS011;54508;43.238;25.306;2023-07-24T12:01:37;12.45;;;8.60;;
67715;SDS011;54508;43.238;25.306;2023-07-24T12:04:03;11.90;;;7.83;;
67715;SDS011;54508;43.238;25.306;2023-07-24T12:06:30;10.10;;;7.07;;
67715;SDS011;54508;43.238;25.306;2023-07-24T12:09:03;10.45;;;6.97;;
67715;SDS011;54508;43.238;25.306;2023-07-24T12:11:32;7.90;;;6.50;;
67715;SDS011;54508;43.238;25.306;2023-07-24T12:13:58;10.15;;;6.65;;
67715;SDS011;54508;43.238;25.306;2023-07-24T12:16:23;7.37;;;6.00;;
67715;SDS011;54508;43.238;25.306;2023-07-24T12:18:49;6.05;;;5.20;;
67715;SDS011;54508;43.238;25.306;2023-07-24T12:21:14;9.50;;;6.13;;
67715;SDS011;54508;43.238;25.306;2023-07-24T12:23:40;9.83;;;5.83;;
67715;SDS011;54508;43.238;25.306;2023-07-24T12:26:08;7.57;;;5.38;;
67715;SDS011;54508;43.238;25.306;2023-07-24T12:28:33;5.97;;;5.07;;
67715;SDS011;54508;43.238;25.306;2023-07-24T12:30:58;8.60;;;5.47;;
67715;SDS011;54508;43.238;25.306;2023-07-24T12:33:24;5.72;;;5.07;;
67715;SDS011;54508;43.238;25.306;2023-07-24T12:35:50;5.60;;;4.90;;
67715;SDS011;54508;43.238;25.306;2023-07-24T12:38:16;6.25;;;4.75;;
67715;SDS011;54508;43.238;25.306;2023-07-24T12:40:42;6.57;;;4.60;;
67715;SDS011;54508;43.238;25.306;2023-07-24T12:43:07;5.30;;;4.32;;
67715;SDS011;54508;43.238;25.306;2023-07-24T12:45:33;5.83;;;4.50;;
67715;SDS011;54508;43.238;25.306;2023-07-24T12:47:58;5.07;;;4.27;;
67715;SDS011;54508;43.238;25.306;2023-07-24T12:50:24;4.40;;;3.97;;
67715;SDS011;54508;43.238;25.306;2023-07-24T12:52:50;6.70;;;4.47;;
67715;SDS011;54508;43.238;25.306;2023-07-24T12:55:16;4.10;;;3.42;;
67715;SDS011;54508;43.238;25.306;2023-07-24T12:57:42;4.68;;;4.28;;
67715;SDS011;54508;43.238;25.306;2023-07-24T13:00:07;7.10;;;4.90;;
67715;SDS011;54508;43.238;25.306;2023-07-24T13:02:34;5.97;;;4.97;;
67715;SDS011;54508;43.238;25.306;2023-07-24T13:05:00;7.50;;;5.10;;
67715;SDS011;54508;43.238;25.306;2023-07-24T13:07:25;7.47;;;5.13;;
67715;SDS011;54508;43.238;25.306;2023-07-24T13:09:51;9.67;;;5.17;;
67715;SDS011;54508;43.238;25.306;2023-07-24T13:12:16;8.20;;;4.60;;
67715;SDS011;54508;43.238;25.306;2023-07-24T13:14:42;6.65;;;4.53;;
67715;SDS011;54508;43.238;25.306;2023-07-24T13:17:08;8.27;;;5.40;;
67715;SDS011;54508;43.238;25.306;2023-07-24T13:19:34;6.15;;;4.03;;
67715;SDS011;54508;43.238;25.306;2023-07-24T13:21:59;7.67;;;4.23;;
67715;SDS011;54508;43.238;25.306;2023-07-24T13:24:25;10.73;;;5.63;;
67715;SDS011;54508;43.238;25.306;2023-07-24T13:26:50;6.03;;;4.95;;
67715;SDS011;54508;43.238;25.306;2023-07-24T13:29:16;6.27;;;5.17;;
67715;SDS011;54508;43.238;25.306;2023-07-24T13:31:41;6.80;;;4.77;;
67715;SDS011;54508;43.238;25.306;2023-07-24T13:34:07;5.10;;;4.22;;
67715;SDS011;54508;43.238;25.306;2023-07-24T13:36:36;6.55;;;4.60;;
67715;SDS011;54508;43.238;25.306;2023-07-24T13:39:01;6.70;;;4.30;;
67715;SDS011;54508;43.238;25.306;2023-07-24T13:41:27;4.82;;;4.05;;
67715;SDS011;54508;43.238;25.306;2023-07-24T13:43:52;4.67;;;3.90;;
67715;SDS011;54508;43.238;25.306;2023-07-24T13:46:18;5.03;;;3.63;;
67715;SDS011;54508;43.238;25.306;2023-07-24T13:48:43;4.93;;;4.43;;
67715;SDS011;54508;43.238;25.306;2023-07-24T13:51:09;5.97;;;3.80;;
67715;SDS011;54508;43.238;25.306;2023-07-24T13:53:35;4.35;;;3.65;;
67715;SDS011;54508;43.238;25.306;2023-07-24T13:56:01;6.82;;;3.80;;
67715;SDS011;54508;43.238;25.306;2023-07-24T13:58:27;4.47;;;3.70;;
67715;SDS011;54508;43.238;25.306;2023-07-24T14:00:53;4.60;;;3.70;;
67715;SDS011;54508;43.238;25.306;2023-07-24T14:03:18;5.50;;;4.87;;
67715;SDS011;54508;43.238;25.306;2023-07-24T14:05:43;5.70;;;4.73;;
67715;SDS011;54508;43.238;25.306;2023-07-24T14:08:09;6.53;;;5.27;;
67715;SDS011;54508;43.238;25.306;2023-07-24T14:10:35;5.75;;;4.85;;
67715;SDS011;54508;43.238;25.306;2023-07-24T14:13:01;6.90;;;4.57;;
67715;SDS011;54508;43.238;25.306;2023-07-24T14:15:26;6.15;;;4.88;;
67715;SDS011;54508;43.238;25.306;2023-07-24T14:17:52;5.90;;;4.30;;
67715;SDS011;54508;43.238;25.306;2023-07-24T14:20:17;9.60;;;4.60;;
67715;SDS011;54508;43.238;25.306;2023-07-24T14:22:43;6.03;;;4.73;;
67715;SDS011;54508;43.238;25.306;2023-07-24T14:25:09;7.10;;;4.68;;
67715;SDS011;54508;43.238;25.306;2023-07-24T14:27:34;7.27;;;4.33;;
67715;SDS011;54508;43.238;25.306;2023-07-24T14:29:59;5.40;;;4.65;;
67715;SDS011;54508;43.238;25.306;2023-07-24T14:32:25;5.35;;;3.90;;